Time;durP1;ratioP1;P1;durP2;ratioP2;P2;SDS_P1;SDS_P2;PMS_P1;PMS_P2;Temp;Humidity;BMP_temperature;BMP_pressure;BME280_temperature;BME280_humidity;BME280_pressure;Samples;Min_cycle;Max_cycle;Signal;HPM_P1;HPM_P2
2020/12/04 00:00:22;;;;;;;65.60;19.92;;;;;;;1.74;76.23;99287.44;4853549;29;20037;-78
2020/12/04 00:02:48;;;;;;;66.38;21.35;;;;;;;1.74;76.17;99276.88;4852419;29;20490;-78
2020/12/04 00:05:13;;;;;;;62.72;20.30;;;;;;;1.74;75.92;99279.53;4852588;29;20026;-78
2020/12/04 00:07:38;;;;;;;63.80;19.95;;;;;;;1.70;76.15;99294.16;4853463;29;20037;-78
2020/12/04 00:10:04;;;;;;;57.28;18.10;;;;;;;1.68;76.05;99290.91;4851932;29;20376;-78
2020/12/04 00:12:29;;;;;;;58.53;19.60;;;;;;;1.68;76.10;99296.19;4851998;29;20125;-79
2020/12/04 00:14:55;;;;;;;65.50;19.73;;;;;;;1.67;76.55;99298.03;4853860;29;20030;-78
2020/12/04 00:17:21;;;;;;;69.03;19.50;;;;;;;1.67;76.61;99303.31;4852358;29;20026;-78
2020/12/04 00:19:46;;;;;;;59.65;18.48;;;;;;;1.69;76.19;99300.44;4852554;29;20034;-79
2020/12/04 00:22:11;;;;;;;60.10;18.45;;;;;;;1.64;76.32;99290.53;4852832;29;20083;-78
2020/12/04 00:24:37;;;;;;;62.15;18.88;;;;;;;1.65;76.41;99299.22;4853078;29;20041;-79
2020/12/04 00:27:02;;;;;;;50.38;19.73;;;;;;;1.59;76.72;99306.97;4852365;29;20112;-80
2020/12/04 00:29:28;;;;;;;58.13;18.33;;;;;;;1.59;76.87;99299.06;4852038;29;20447;-80
2020/12/04 00:31:54;;;;;;;58.97;16.80;;;;;;;1.63;76.74;99298.66;4854879;29;20028;-79
2020/12/04 00:34:20;;;;;;;47.92;18.23;;;;;;;1.64;76.57;99290.53;4849442;29;20026;-77
2020/12/04 00:36:47;;;;;;;52.47;17.20;;;;;;;1.67;76.59;99287.47;4862041;29;20036;-77
2020/12/04 00:39:13;;;;;;;50.35;17.65;;;;;;;1.67;76.30;99294.56;4862164;29;20025;-79
2020/12/04 00:41:39;;;;;;;60.05;19.40;;;;;;;1.68;76.86;99296.97;4909690;24;20056;-78
2020/12/04 00:44:04;;;;;;;60.10;21.00;;;;;;;1.71;77.24;99282.56;4909398;29;20049;-77
2020/12/04 00:46:30;;;;;;;62.92;18.40;;;;;;;1.75;76.88;99281.13;4902655;29;20457;-77
2020/12/04 00:48:55;;;;;;;48.70;15.63;;;;;;;1.72;76.82;99285.00;4901545;29;20064;-78
2020/12/04 00:51:20;;;;;;;50.08;17.23;;;;;;;1.74;76.74;99284.78;4901588;29;20036;-77
2020/12/04 00:53:46;;;;;;;63.17;16.77;;;;;;;1.73;76.36;99284.00;4904415;29;20024;-78
2020/12/04 00:56:11;;;;;;;53.47;16.65;;;;;;;1.69;77.10;99282.00;4907425;29;20032;-79
2020/12/04 00:58:36;;;;;;;41.17;15.77;;;;;;;1.71;76.76;99286.03;4900409;29;20482;-79
2020/12/04 01:01:02;;;;;;;46.83;17.25;;;;;;;1.72;76.52;99284.19;4904273;29;21948;-78
2020/12/04 01:03:28;;;;;;;57.17;17.50;;;;;;;1.73;76.61;99285.81;4890389;29;20032;-79
2020/12/04 01:05:54;;;;;;;52.50;16.08;;;;;;;1.73;76.30;99280.53;4887082;29;20028;-79
2020/12/04 01:08:20;;;;;;;58.00;17.23;;;;;;;1.66;77.10;99290.31;4891691;29;20024;-78
2020/12/04 01:10:46;;;;;;;57.10;17.17;;;;;;;1.66;77.18;99285.03;4899937;29;20032;-77
2020/12/04 01:13:12;;;;;;;50.28;17.65;;;;;;;1.64;77.31;99292.38;4900235;29;20032;-77
2020/12/04 01:15:37;;;;;;;52.83;18.05;;;;;;;1.60;77.36;99281.44;4900247;29;20387;-77
2020/12/04 01:18:03;;;;;;;51.33;16.83;;;;;;;1.65;77.25;99293.97;4887686;29;20035;-78
2020/12/04 01:20:28;;;;;;;45.30;16.33;;;;;;;1.60;77.05;99284.06;4900339;29;20032;-77
2020/12/04 01:22:53;;;;;;;42.28;18.88;;;;;;;1.60;77.53;99278.81;4897816;29;20489;-77
2020/12/04 01:25:19;;;;;;;46.05;16.58;;;;;;;1.62;77.14;99268.84;4903306;29;20397;-79
2020/12/04 01:27:44;;;;;;;58.53;18.48;;;;;;;1.63;77.39;99261.75;4914638;29;20080;-79
2020/12/04 01:30:09;;;;;;;59.40;18.13;;;;;;;1.61;76.96;99256.66;4906608;29;20511;-78
2020/12/04 01:32:35;;;;;;;52.95;16.60;;;;;;;1.56;77.47;99252.06;4891921;29;20033;-79
2020/12/04 01:35:00;;;;;;;57.80;16.20;;;;;;;1.60;77.16;99249.81;4902011;29;20028;-79
2020/12/04 01:37:25;;;;;;;56.33;17.30;;;;;;;1.58;77.26;99243.91;4899283;29;20091;-79
2020/12/04 01:39:51;;;;;;;49.72;16.85;;;;;;;1.58;77.33;99243.91;4903158;29;20461;-79
2020/12/04 01:42:16;;;;;;;60.17;18.38;;;;;;;1.60;77.71;99260.34;4903541;29;20045;-78
2020/12/04 01:44:41;;;;;;;53.70;17.85;;;;;;;1.62;77.80;99260.91;4903258;29;20032;-78
2020/12/04 01:47:07;;;;;;;45.20;15.55;;;;;;;1.64;77.50;99253.63;4905584;29;20031;-79
2020/12/04 01:49:32;;;;;;;54.67;16.00;;;;;;;1.65;77.52;99246.50;4905630;29;20063;-79
2020/12/04 01:51:58;;;;;;;49.72;16.27;;;;;;;1.64;77.42;99245.72;4905660;29;20032;-79
2020/12/04 01:54:23;;;;;;;49.33;15.73;;;;;;;1.65;77.61;99235.97;4906613;29;20113;-79
2020/12/04 01:56:49;;;;;;;51.65;14.65;;;;;;;1.63;77.36;99227.47;4906723;29;20103;-79
2020/12/04 01:59:15;;;;;;;58.05;17.85;;;;;;;1.60;77.11;99221.59;4903344;29;20059;-81
2020/12/04 02:01:43;;;;;;;51.53;15.20;;;;;;;1.59;77.40;99222.63;4903821;29;20047;-80
2020/12/04 02:04:11;;;;;;;58.55;18.17;;;;;;;1.64;77.27;99234.38;4903389;29;20024;-80
2020/12/04 02:06:43;;;;;;;54.60;17.20;;;;;;;1.63;77.24;99238.81;4920522;29;20039;-79
2020/12/04 02:09:14;;;;;;;56.25;15.85;;;;;;;1.63;77.15;99233.53;4911509;29;20040;-79
2020/12/04 02:11:41;;;;;;;54.25;15.57;;;;;;;1.65;77.53;99230.69;4905866;29;20122;-81
2020/12/04 02:14:08;;;;;;;46.60;16.38;;;;;;;1.65;77.29;99222.78;4905175;29;20065;-82
2020/12/04 02:17:12;;;;;;;36.20;13.43;;;;;;;1.68;77.40;99225.00;4908229;29;20024;-82
2020/12/04 02:19:43;;;;;;;49.60;15.88;;;;;;;1.68;77.33;99228.44;4915626;29;20028;-80
2020/12/04 02:22:12;;;;;;;48.00;15.60;;;;;;;1.71;77.52;99220.13;4930474;29;20091;-79
2020/12/04 02:24:39;;;;;;;56.88;15.13;;;;;;;1.67;77.07;99212.84;4905668;29;20083;-78
2020/12/04 02:27:07;;;;;;;53.10;14.68;;;;;;;1.62;77.29;99210.84;4904398;29;20577;-78
2020/12/04 02:29:32;;;;;;;58.60;15.70;;;;;;;1.58;77.83;99205.19;4903547;29;20032;-78
2020/12/04 02:31:58;;;;;;;48.72;15.38;;;;;;;1.51;78.19;99206.25;4908780;29;20032;-78
2020/12/04 02:34:23;;;;;;;49.42;15.80;;;;;;;1.50;78.01;99204.63;4886213;29;20119;-78
2020/12/04 02:36:54;;;;;;;58.33;16.83;;;;;;;1.50;78.11;99199.34;4904532;29;20126;-78
2020/12/04 02:39:19;;;;;;;49.72;16.60;;;;;;;1.50;78.19;99196.72;4901620;29;20024;-77
2020/12/04 02:41:45;;;;;;;46.90;15.35;;;;;;;1.50;78.30;99196.72;4899743;29;20060;-76
2020/12/04 02:44:10;;;;;;;53.92;16.63;;;;;;;1.49;78.36;99192.47;4898807;29;20409;-77
2020/12/04 02:46:36;;;;;;;51.38;18.15;;;;;;;1.52;78.27;99197.31;4901339;29;20028;-77
2020/12/04 02:49:01;;;;;;;59.28;16.45;;;;;;;1.51;78.38;99190.44;4918234;29;20654;-77
2020/12/04 02:51:26;;;;;;;55.10;16.27;;;;;;;1.54;78.39;99195.28;4902725;29;20040;-78
2020/12/04 02:53:52;;;;;;;53.13;16.05;;;;;;;1.57;78.47;99192.22;4904091;29;20039;-77
2020/12/04 02:56:17;;;;;;;53.90;15.57;;;;;;;1.58;78.17;99188.56;4902634;29;20099;-78
2020/12/04 02:58:43;;;;;;;50.15;14.35;;;;;;;1.60;78.02;99182.06;4903818;29;20060;-78
2020/12/04 03:01:08;;;;;;;55.10;16.23;;;;;;;1.63;78.00;99177.38;4904239;29;20036;-77
2020/12/04 03:03:34;;;;;;;58.33;18.33;;;;;;;1.62;78.19;99181.84;4907088;29;20039;-79
2020/12/04 03:05:59;;;;;;;45.60;17.92;;;;;;;1.64;78.11;99187.72;4907398;29;20031;-79
2020/12/04 03:08:25;;;;;;;49.38;16.00;;;;;;;1.66;78.00;99177.78;4906530;29;20043;-77
2020/12/04 03:10:51;;;;;;;56.03;18.80;;;;;;;1.67;78.28;99168.84;4906964;29;20032;-77
2020/12/04 03:13:17;;;;;;;65.63;15.48;;;;;;;1.70;77.81;99186.84;4904153;29;20033;-76
2020/12/04 03:15:42;;;;;;;54.65;15.65;;;;;;;1.71;77.93;99185.00;4906431;29;21926;-77
2020/12/04 03:18:07;;;;;;;56.63;18.60;;;;;;;1.75;77.37;99186.22;4903247;29;20043;-77
2020/12/04 03:20:33;;;;;;;41.97;15.32;;;;;;;1.76;77.85;99188.63;4902945;29;20032;-77
2020/12/04 03:22:58;;;;;;;55.58;16.90;;;;;;;1.76;77.58;99174.66;4907241;29;20028;-78
2020/12/04 03:25:23;;;;;;;48.47;18.30;;;;;;;1.78;77.73;99177.06;4907107;29;20591;-77
2020/12/04 03:27:49;;;;;;;49.25;15.38;;;;;;;1.76;77.62;99188.63;4908389;29;20389;-78
2020/12/04 03:30:16;;;;;;;55.22;15.13;;;;;;;1.76;77.51;99188.63;4908362;29;20033;-81
2020/12/04 03:32:41;;;;;;;56.55;16.60;;;;;;;1.79;77.68;99197.94;4906589;29;20115;-78
2020/12/04 03:35:07;;;;;;;46.17;15.05;;;;;;;1.80;77.73;99186.38;4902938;29;20071;-78
2020/12/04 03:37:32;;;;;;;47.42;14.73;;;;;;;1.82;77.64;99201.97;4906846;29;20024;-79
2020/12/04 03:39:57;;;;;;;41.60;14.98;;;;;;;1.83;77.59;99206.22;4906235;29;20535;-78
2020/12/04 03:42:23;;;;;;;39.72;14.13;;;;;;;1.82;77.66;99210.72;4906728;29;20045;-77
2020/12/04 03:44:48;;;;;;;45.33;15.88;;;;;;;1.82;77.67;99209.88;4903308;29;20040;-76
2020/12/04 03:47:13;;;;;;;50.65;16.35;;;;;;;1.78;77.82;99206.06;4901801;29;20031;-74
2020/12/04 03:49:39;;;;;;;57.33;16.27;;;;;;;1.76;78.13;99209.72;4899568;29;20470;-77
2020/12/04 03:52:04;;;;;;;44.75;15.77;;;;;;;1.74;78.21;99209.13;4904124;29;20029;-78
2020/12/04 03:54:30;;;;;;;54.85;15.10;;;;;;;1.73;78.35;99193.53;4903847;29;20025;-78
2020/12/04 03:56:55;;;;;;;55.97;17.08;;;;;;;1.69;78.32;99190.50;4906286;29;20053;-79
2020/12/04 03:59:23;;;;;;;37.30;14.45;;;;;;;1.67;78.34;99184.66;4906192;29;20043;-80
2020/12/04 04:01:49;;;;;;;40.03;14.68;;;;;;;1.69;78.26;99184.44;4899569;29;20037;-79
2020/12/04 04:04:14;;;;;;;34.10;10.88;;;;;;;1.69;78.09;99172.06;4904026;29;20058;-79
2020/12/04 04:06:41;;;;;;;57.03;15.20;;;;;;;1.66;78.23;99175.13;4906807;29;20033;-78
2020/12/04 04:09:07;;;;;;;44.28;13.85;;;;;;;1.66;78.04;99190.94;4902152;29;20390;-78
2020/12/04 04:11:32;;;;;;;47.22;15.95;;;;;;;1.63;78.32;99188.72;4904061;29;20028;-77
2020/12/04 04:13:57;;;;;;;38.05;13.90;;;;;;;1.64;78.43;99197.47;4904447;29;20028;-77
2020/12/04 04:16:23;;;;;;;47.75;14.57;;;;;;;1.65;78.41;99191.13;4904821;29;20434;-79
2020/12/04 04:18:48;;;;;;;43.22;14.35;;;;;;;1.63;78.85;99194.00;4905707;29;20104;-80
2020/12/04 04:21:13;;;;;;;49.17;14.70;;;;;;;1.65;78.59;99194.59;4904014;29;20084;-78
2020/12/04 04:23:39;;;;;;;51.50;16.23;;;;;;;1.67;78.96;99207.56;4903298;29;20455;-78
2020/12/04 04:26:05;;;;;;;48.85;16.55;;;;;;;1.67;78.91;99197.84;4905342;29;20067;-78
2020/12/04 04:28:31;;;;;;;56.47;17.42;;;;;;;1.70;78.78;99201.88;4900224;29;20051;-79
2020/12/04 04:30:56;;;;;;;51.83;15.38;;;;;;;1.72;79.03;99205.09;4900068;29;20036;-77
2020/12/04 04:33:22;;;;;;;48.63;14.93;;;;;;;1.71;78.76;99198.19;4901276;29;20126;-78
2020/12/04 04:35:48;;;;;;;41.13;15.38;;;;;;;1.74;79.01;99195.94;4905983;29;20036;-79
2020/12/04 04:38:13;;;;;;;48.90;15.75;;;;;;;1.75;78.56;99202.84;4902905;29;20036;-79
2020/12/04 04:40:38;;;;;;;55.67;15.75;;;;;;;1.75;78.36;99200.19;4904251;29;20147;-78
2020/12/04 04:43:14;;;;;;;43.95;15.35;;;;;;;1.78;78.53;99203.44;4918849;29;20067;-78
2020/12/04 04:45:44;;;;;;;40.33;14.88;;;;;;;1.81;78.45;99208.25;4917728;29;20055;-77
2020/12/04 04:48:14;;;;;;;31.02;11.75;;;;;;;1.82;78.42;99210.72;4916745;29;20028;-77
2020/12/04 04:50:43;;;;;;;33.85;11.02;;;;;;;1.84;78.75;99206.00;4906439;29;20039;-77
2020/12/04 04:53:09;;;;;;;27.42;9.90;;;;;;;1.83;78.44;99208.88;4906482;29;20034;-77
2020/12/04 04:55:35;;;;;;;28.63;10.32;;;;;;;1.84;78.61;99208.66;4903460;29;20068;-78
2020/12/04 04:58:05;;;;;;;27.33;10.88;;;;;;;1.84;78.64;99213.91;4901975;29;20028;-79
2020/12/04 05:00:30;;;;;;;35.40;10.75;;;;;;;1.86;78.53;99211.88;4903218;29;20043;-78
2020/12/04 05:02:56;;;;;;;28.95;9.30;;;;;;;1.88;78.32;99209.03;4903819;29;20032;-79
2020/12/04 05:05:39;;;;;;;21.42;9.05;;;;;;;1.88;78.17;99190.56;4904655;29;20106;-78
2020/12/04 05:08:16;;;;;;;25.90;10.60;;;;;;;1.88;78.29;99198.47;4904180;29;20032;-77
2020/12/04 05:10:46;;;;;;;22.23;9.13;;;;;;;1.90;78.03;99204.34;4904837;29;20032;-77
2020/12/04 05:13:12;;;;;;;26.58;8.40;;;;;;;1.91;78.15;99204.13;4904599;29;20036;-78
2020/12/04 05:15:39;;;;;;;28.58;8.88;;;;;;;1.92;78.23;99197.84;4906162;29;20485;-78
2020/12/04 05:18:16;;;;;;;25.27;9.50;;;;;;;1.95;78.21;99203.72;4903427;29;20027;-78
2020/12/04 05:20:43;;;;;;;22.85;7.95;;;;;;;1.91;78.30;99188.31;4905297;29;20034;-79
2020/12/04 05:23:09;;;;;;;25.85;9.82;;;;;;;1.94;78.49;99196.81;4907913;29;20032;-77
2020/12/04 05:25:42;;;;;;;27.95;9.60;;;;;;;1.88;78.73;99191.38;4922838;29;20032;-78
2020/12/04 05:28:17;;;;;;;28.92;10.70;;;;;;;1.88;78.42;99193.19;4905145;29;20040;-78
2020/12/04 05:30:45;;;;;;;34.60;11.32;;;;;;;1.87;78.88;99183.69;4906146;29;20020;-80
2020/12/04 05:33:11;;;;;;;27.58;9.77;;;;;;;1.88;78.94;99196.66;4905446;29;20031;-81
2020/12/04 05:35:37;;;;;;;36.70;11.32;;;;;;;1.87;78.75;99191.59;4906682;29;20567;-80
2020/12/04 05:38:17;;;;;;;31.73;10.05;;;;;;;1.87;78.67;99196.88;4902026;29;20119;-79
2020/12/04 05:40:45;;;;;;;29.27;11.65;;;;;;;1.87;78.49;99202.16;4905014;29;20024;-80
2020/12/04 05:43:12;;;;;;;40.70;11.48;;;;;;;1.88;78.74;99198.47;4904036;29;20044;-74
2020/12/04 05:45:38;;;;;;;37.97;14.05;;;;;;;1.87;79.42;99196.88;4916235;29;20039;-76
2020/12/04 05:48:15;;;;;;;29.63;12.18;;;;;;;1.87;79.14;99192.41;4916921;29;20035;-75
2020/12/04 05:50:41;;;;;;;41.13;17.20;;;;;;;1.87;78.77;99183.69;4906963;29;20009;-76
2020/12/04 05:53:08;;;;;;;28.30;13.48;;;;;;;1.87;78.75;99183.69;4916889;29;20020;-76
2020/12/04 05:55:35;;;;;;;28.58;12.32;;;;;;;1.85;78.71;99197.06;4915807;29;20171;-76
2020/12/04 05:58:02;;;;;;;28.73;11.70;;;;;;;1.83;79.02;99190.41;4915431;29;20031;-76
2020/12/04 06:00:27;;;;;;;30.13;11.05;;;;;;;1.83;79.08;99195.69;4915047;29;20477;-76
2020/12/04 06:03:03;;;;;;;32.03;11.43;;;;;;;1.88;78.97;99201.13;4915429;29;20035;-76
2020/12/04 06:05:29;;;;;;;34.28;14.23;;;;;;;1.88;78.88;99209.84;4897851;29;20434;-75
2020/12/04 06:08:05;;;;;;;59.40;22.63;;;;;;;1.85;78.94;99205.00;4917706;29;20035;-77
2020/12/04 06:10:33;;;;;;;43.33;16.60;;;;;;;1.87;79.12;99221.41;4900568;29;20066;-77
2020/12/04 06:13:00;;;;;;;40.58;15.57;;;;;;;1.85;78.97;99215.53;4915778;29;20035;-75
2020/12/04 06:15:31;;;;;;;31.65;11.48;;;;;;;1.83;79.27;99214.13;4916186;29;20043;-75
2020/12/04 06:18:04;;;;;;;27.80;10.30;;;;;;;1.83;79.10;99230.78;4916923;29;20020;-76
2020/12/04 06:20:43;;;;;;;22.08;9.65;;;;;;;1.82;78.81;99228.34;4908433;29;20111;-76
2020/12/04 06:23:10;;;;;;;;;;;;;;;1.86;79.03;99237.47;4918453;29;20156;-75
2020/12/04 06:25:50;;;;;;;26.02;9.57;;;;;;;1.84;79.55;99232.38;4911617;29;19915;-75
2020/12/04 06:28:17;;;;;;;29.55;11.27;;;;;;;1.90;79.44;99244.75;4915231;29;20239;-74
2020/12/04 06:31:13;;;;;;;35.22;12.65;;;;;;;1.93;79.48;99240.88;4917688;29;20028;-75
2020/12/04 06:33:49;;;;;;;36.58;13.02;;;;;;;1.97;78.97;99244.69;4915008;29;20059;-75
2020/12/04 06:36:29;;;;;;;40.60;14.00;;;;;;;2.03;79.18;99254.38;4917703;29;20043;-76
2020/12/04 06:38:55;;;;;;;34.47;14.23;;;;;;;2.04;78.95;99256.00;4920328;29;20119;-74
2020/12/04 06:41:25;;;;;;;31.52;12.77;;;;;;;2.10;78.90;99249.06;4918747;29;20031;-74
2020/12/04 06:43:53;;;;;;;23.98;10.45;;;;;;;2.14;78.89;99258.16;4920942;29;20027;-73
2020/12/04 06:46:27;;;;;;;28.27;9.15;;;;;;;2.15;78.68;99262.41;4927134;29;20031;-74
2020/12/04 06:49:11;;;;;;;37.70;12.52;;;;;;;2.19;78.91;99252.22;4900176;29;20042;-74
2020/12/04 06:51:37;;;;;;;28.63;11.30;;;;;;;2.18;78.23;99251.41;4899741;29;20107;-73
2020/12/04 06:54:07;;;;;;;27.05;10.93;;;;;;;2.21;78.54;99252.78;4899941;29;20036;-73
2020/12/04 06:56:33;;;;;;;29.17;11.20;;;;;;;2.25;78.60;99264.56;4900249;29;20028;-73
2020/12/04 06:58:59;;;;;;;29.88;11.65;;;;;;;2.26;78.40;99257.44;4918253;29;20115;-74
2020/12/04 07:01:24;;;;;;;29.15;10.90;;;;;;;2.28;78.41;99258.03;4918411;29;20533;-74
2020/12/04 07:03:55;;;;;;;30.45;11.60;;;;;;;2.28;78.38;99244.84;4918392;29;20055;-74
2020/12/04 07:06:24;;;;;;;25.98;10.77;;;;;;;2.30;78.42;99248.88;4918218;29;20020;-74
2020/12/04 07:08:58;;;;;;;32.47;11.73;;;;;;;2.29;78.68;99247.25;4918701;29;20083;-73
2020/12/04 07:11:25;;;;;;;25.17;10.20;;;;;;;2.24;78.23;99239.19;4918312;29;20087;-74
2020/12/04 07:13:51;;;;;;;24.40;9.02;;;;;;;2.29;78.36;99238.53;4918500;29;20651;-74
2020/12/04 07:16:17;;;;;;;24.58;10.90;;;;;;;2.24;78.73;99226.00;4918359;29;20020;-75
2020/12/04 07:18:42;;;;;;;21.58;9.98;;;;;;;2.25;78.75;99235.53;4901020;29;20028;-74
2020/12/04 07:21:08;;;;;;;23.00;9.57;;;;;;;2.25;78.81;99235.53;4918200;29;20027;-75
2020/12/04 07:23:36;;;;;;;23.98;10.15;;;;;;;2.24;78.55;99250.53;4917445;29;20036;-75
2020/12/04 07:26:04;;;;;;;22.90;8.60;;;;;;;2.26;79.19;99255.63;4901203;29;20397;-74
2020/12/04 07:28:31;;;;;;;27.45;10.88;;;;;;;2.26;79.10;99250.34;4917398;29;20028;-76
2020/12/04 07:30:57;;;;;;;21.92;8.27;;;;;;;2.33;78.90;99237.06;4920673;29;20124;-76
2020/12/04 07:33:22;;;;;;;25.23;9.55;;;;;;;2.35;78.64;99251.66;4916978;29;20028;-76
2020/12/04 07:35:48;;;;;;;19.13;8.73;;;;;;;2.37;78.40;99254.13;4900970;29;20024;-76
2020/12/04 07:38:13;;;;;;;28.85;11.60;;;;;;;2.37;78.97;99259.38;4917686;29;20568;-76
2020/12/04 07:40:40;;;;;;;33.97;10.80;;;;;;;2.41;78.80;99247.38;4916514;29;20107;-75
2020/12/04 07:43:10;;;;;;;48.63;12.93;;;;;;;2.43;79.07;99255.88;4921350;29;20474;-75
2020/12/04 07:45:36;;;;;;;48.17;14.43;;;;;;;2.45;78.75;99250.38;4925015;29;20032;-75
2020/12/04 07:48:08;;;;;;;46.42;12.95;;;;;;;2.42;78.40;99250.78;4917115;29;20031;-75
2020/12/04 07:50:34;;;;;;;37.55;12.80;;;;;;;2.41;78.69;99244.72;4936112;29;20047;-76
2020/12/04 07:52:59;;;;;;;50.22;15.73;;;;;;;2.44;78.50;99248.75;4916986;29;20028;-76
2020/12/04 07:55:26;;;;;;;48.92;16.17;;;;;;;2.44;78.81;99252.22;4916760;29;20042;-75
2020/12/04 07:58:02;;;;;;;43.28;15.95;;;;;;;2.51;78.42;99262.72;4916749;29;20036;-76
2020/12/04 08:00:32;;;;;;;49.22;13.90;;;;;;;2.53;78.66;99260.66;4917258;29;20063;-77
2020/12/04 08:03:10;;;;;;;47.88;13.25;;;;;;;2.56;78.30;99254.94;4917162;29;20108;-77
2020/12/04 08:05:36;;;;;;;;;;;;;;;2.60;78.72;99261.41;4900667;29;20055;-76
2020/12/04 08:08:01;;;;;;;42.53;16.00;;;;;;;2.60;78.37;99248.22;4900489;29;19938;-76
2020/12/04 08:10:27;;;;;;;45.03;15.55;;;;;;;2.62;78.12;99250.63;4916676;29;20488;-74
2020/12/04 08:12:56;;;;;;;48.10;15.75;;;;;;;2.68;78.34;99258.47;4899539;29;20495;-75
2020/12/04 08:15:21;;;;;;;51.97;16.23;;;;;;;2.70;78.11;99263.56;4916121;29;20040;-76
2020/12/04 08:17:47;;;;;;;41.47;15.60;;;;;;;2.71;78.09;99263.31;4913312;29;20496;-77
2020/12/04 08:20:17;;;;;;;38.05;12.93;;;;;;;2.76;78.17;99257.38;4922064;29;20028;-76
2020/12/04 08:22:48;;;;;;;38.92;13.48;;;;;;;2.80;78.06;99247.19;4918713;29;20024;-74
2020/12/04 08:25:13;;;;;;;46.65;15.93;;;;;;;2.82;77.87;99251.22;4927241;29;20038;-75
2020/12/04 08:27:38;;;;;;;35.50;13.77;;;;;;;2.87;77.61;99254.00;4935667;29;20031;-74
2020/12/04 08:30:08;;;;;;;41.75;15.60;;;;;;;2.89;77.57;99253.78;4936102;29;20026;-75
2020/12/04 08:32:34;;;;;;;48.85;15.32;;;;;;;2.92;77.53;99253.34;4899940;29;20039;-75
2020/12/04 08:35:12;;;;;;;49.15;15.55;;;;;;;2.97;77.59;99263.25;4916459;29;20028;-75
2020/12/04 08:37:38;;;;;;;49.10;15.98;;;;;;;3.03;77.39;99262.38;4916336;29;20056;-75
2020/12/04 08:40:04;;;;;;;43.20;16.30;;;;;;;3.04;77.43;99264.00;4914447;29;20055;-73
2020/12/04 08:42:34;;;;;;;42.47;13.57;;;;;;;3.04;76.83;99254.22;4924564;29;20047;-76
2020/12/04 08:45:05;;;;;;;41.15;13.25;;;;;;;3.06;76.79;99255.84;4930034;29;20031;-75
2020/12/04 08:47:36;;;;;;;39.22;13.63;;;;;;;3.06;77.31;99259.28;4930570;29;20036;-75
2020/12/04 08:50:06;;;;;;;35.40;13.63;;;;;;;3.09;76.89;99260.69;4897595;29;20035;-75
2020/12/04 08:52:42;;;;;;;42.72;16.05;;;;;;;3.11;77.01;99269.19;4909790;29;20058;-75
2020/12/04 08:55:10;;;;;;;46.13;14.18;;;;;;;3.11;77.01;99256.78;4900727;29;20035;-75
2020/12/04 08:57:36;;;;;;;40.03;15.23;;;;;;;3.13;76.61;99246.81;4927020;29;20035;-75
2020/12/04 09:00:04;;;;;;;48.88;16.98;;;;;;;3.14;76.99;99242.34;4934183;29;20079;-76
2020/12/04 09:02:30;;;;;;;50.40;16.10;;;;;;;3.14;77.22;99235.22;4917875;29;20142;-73
2020/12/04 09:04:55;;;;;;;44.35;16.52;;;;;;;3.15;77.33;99225.44;4920825;29;20492;-74
2020/12/04 09:07:20;;;;;;;38.95;14.40;;;;;;;3.11;77.20;99217.13;4915429;29;20111;-74
2020/12/04 09:09:46;;;;;;;35.63;13.45;;;;;;;3.13;77.23;99224.88;4915866;29;20473;-74
2020/12/04 09:12:11;;;;;;;36.75;14.48;;;;;;;3.12;76.94;99226.69;4916027;29;20102;-74
2020/12/04 09:14:36;;;;;;;39.95;14.55;;;;;;;3.15;77.21;99217.50;4915870;29;20032;-74
2020/12/04 09:17:02;;;;;;;37.13;13.40;;;;;;;3.14;77.10;99218.56;4915414;29;20036;-76
2020/12/04 09:19:27;;;;;;;45.75;15.18;;;;;;;3.16;77.03;99213.84;4915231;29;20502;-74
2020/12/04 09:21:52;;;;;;;35.45;13.85;;;;;;;3.15;77.40;99220.97;4898710;29;20043;-72
2020/12/04 09:24:18;;;;;;;41.45;15.43;;;;;;;3.18;77.45;99215.22;4915853;29;20028;-74
2020/12/04 09:26:43;;;;;;;40.13;12.70;;;;;;;3.20;77.01;99220.31;4915643;29;20362;-74
2020/12/04 09:29:09;;;;;;;34.00;12.40;;;;;;;3.16;77.23;99211.19;4916001;29;20032;-75
2020/12/04 09:31:34;;;;;;;44.72;14.52;;;;;;;3.10;77.56;99206.81;4915378;29;20055;-75
2020/12/04 09:33:59;;;;;;;37.40;14.10;;;;;;;3.08;77.90;99199.09;4898502;29;20590;-76
2020/12/04 09:36:25;;;;;;;37.38;13.60;;;;;;;3.03;78.22;99202.41;4915741;29;20054;-75
2020/12/04 09:38:50;;;;;;;47.47;16.60;;;;;;;3.04;78.52;99193.47;4898870;29;20024;-76
2020/12/04 09:41:15;;;;;;;32.50;13.68;;;;;;;3.00;77.87;99200.22;4915133;29;20056;-74
2020/12/04 09:43:41;;;;;;;43.55;15.63;;;;;;;2.98;77.76;99199.63;4914566;29;20036;-74
2020/12/04 09:46:06;;;;;;;46.72;16.05;;;;;;;2.93;78.38;99190.75;4898541;29;20111;-74
2020/12/04 09:48:32;;;;;;;43.25;14.93;;;;;;;2.89;78.09;99187.75;4915150;29;20060;-76
2020/12/04 09:50:57;;;;;;;45.97;15.63;;;;;;;2.86;78.37;99186.34;4915610;29;20047;-76
2020/12/04 09:53:22;;;;;;;40.22;15.30;;;;;;;2.86;78.32;99193.47;4912822;29;20054;-75
2020/12/04 09:55:48;;;;;;;43.40;15.50;;;;;;;2.84;78.47;99187.59;4915121;29;20032;-76
2020/12/04 09:58:13;;;;;;;40.80;15.50;;;;;;;2.88;78.38;99189.59;4899055;29;20080;-75
2020/12/04 10:00:38;;;;;;;47.22;16.00;;;;;;;2.87;78.93;99182.69;4915074;29;20051;-74
2020/12/04 10:03:04;;;;;;;41.97;14.55;;;;;;;2.92;78.70;99181.19;4914400;29;20023;-73
2020/12/04 10:05:29;;;;;;;54.08;16.92;;;;;;;2.96;78.68;99169.97;4914819;29;20125;-75
2020/12/04 10:07:55;;;;;;;46.30;15.90;;;;;;;2.97;78.87;99163.66;4914345;29;20055;-76
2020/12/04 10:10:20;;;;;;;41.60;14.85;;;;;;;3.00;78.62;99165.06;4914444;29;20044;-76
2020/12/04 10:12:45;;;;;;;45.88;14.45;;;;;;;3.02;78.44;99158.50;4902591;29;20028;-75
2020/12/04 10:15:11;;;;;;;68.68;27.02;;;;;;;3.04;78.40;99169.69;4914266;29;20067;-76
2020/12/04 10:17:36;;;;;;;67.22;21.73;;;;;;;3.05;78.06;99167.81;4903876;29;20032;-77
2020/12/04 10:20:02;;;;;;;43.85;15.48;;;;;;;3.02;78.35;99161.16;4916090;29;20060;-78
2020/12/04 10:22:28;;;;;;;40.30;16.25;;;;;;;3.07;78.41;99159.69;4897308;29;20028;-75
2020/12/04 10:24:53;;;;;;;55.75;17.23;;;;;;;3.15;78.37;99162.81;4914894;29;20039;-75
2020/12/04 10:27:18;;;;;;;47.40;17.27;;;;;;;3.20;78.39;99170.09;4913909;29;20028;-76
2020/12/04 10:29:44;;;;;;;48.92;16.50;;;;;;;3.23;78.52;99159.06;4914882;29;20036;-77
2020/12/04 10:32:09;;;;;;;38.90;15.10;;;;;;;3.29;78.08;99155.50;4916479;29;20107;-77
2020/12/04 10:34:35;;;;;;;47.33;16.85;;;;;;;3.40;78.29;99142.56;4899017;29;20046;-77
2020/12/04 10:37:00;;;;;;;42.03;14.77;;;;;;;3.45;77.79;99153.25;4913308;29;20420;-76
2020/12/04 10:39:26;;;;;;;42.70;15.65;;;;;;;3.50;77.44;99142.81;4911655;29;20034;-77
2020/12/04 10:41:51;;;;;;;39.47;15.35;;;;;;;3.53;77.35;99151.09;4901136;29;20076;-77
2020/12/04 10:44:17;;;;;;;46.15;15.68;;;;;;;3.58;77.39;99153.06;4914870;29;20035;-76
2020/12/04 10:46:42;;;;;;;41.67;15.48;;;;;;;3.62;77.06;99151.56;4914718;29;20084;-77
2020/12/04 10:49:07;;;;;;;32.67;14.50;;;;;;;3.64;77.35;99151.34;4897874;29;20185;-79
2020/12/04 10:51:33;;;;;;;43.28;16.63;;;;;;;3.66;77.04;99149.28;4897453;29;20028;-78
2020/12/04 10:53:59;;;;;;;42.38;16.98;;;;;;;3.68;77.02;99158.59;4914447;29;20031;-78
2020/12/04 10:56:24;;;;;;;45.85;16.75;;;;;;;3.73;76.99;99154.47;4898631;29;20382;-77
2020/12/04 10:58:51;;;;;;;38.45;14.18;;;;;;;3.74;76.82;99145.50;4902922;29;20035;-77
2020/12/04 11:01:43;;;;;;;42.30;14.65;;;;;;;3.73;76.76;99141.25;4916344;29;20027;-77
2020/12/04 11:06:47;;;;;;;36.60;15.25;;;;;;;3.66;76.64;99123.66;4917512;29;20119;-77
2020/12/04 11:09:12;;;;;;;46.42;16.00;;;;;;;3.64;76.95;99128.34;4916484;29;20055;-77
2020/12/04 11:11:37;;;;;;;46.38;16.30;;;;;;;3.68;76.88;99126.84;4902909;29;20147;-78
2020/12/04 11:14:03;;;;;;;47.72;15.38;;;;;;;3.67;76.47;99117.31;4898392;29;20036;-76
2020/12/04 11:16:28;;;;;;;35.60;14.38;;;;;;;3.65;76.42;99107.97;4917377;29;20044;-77
2020/12/04 11:18:54;;;;;;;43.67;14.10;;;;;;;3.58;77.04;99100.19;4901599;29;20028;-76
2020/12/04 11:21:19;;;;;;;43.67;15.52;;;;;;;3.60;76.87;99108.69;4918482;29;20020;-77
2020/12/04 11:23:44;;;;;;;45.28;14.90;;;;;;;3.60;77.13;99118.44;4902154;29;20028;-76
2020/12/04 11:26:10;;;;;;;47.63;15.77;;;;;;;3.58;77.20;99107.31;4907944;29;20059;-79
2020/12/04 11:28:36;;;;;;;47.05;16.15;;;;;;;3.57;77.40;99114.44;4906496;29;20036;-78